sensor_id;sensor_type;location;lat;lon;timestamp;temperature;humidity
16827;DHT22;8530;49.540;8.576;2022-07-29T00:00:50;23.40;34.70
16827;DHT22;8530;49.540;8.576;2022-07-29T00:03:17;23.40;34.90
16827;DHT22;8530;49.540;8.576;2022-07-29T00:05:45;23.40;35.10
16827;DHT22;8530;49.540;8.576;2022-07-29T00:08:11;23.30;35.20
16827;DHT22;8530;49.540;8.576;2022-07-29T00:10:38;23.30;35.30
16827;DHT22;8530;49.540;8.576;2022-07-29T00:13:05;23.20;35.50
16827;DHT22;8530;49.540;8.576;2022-07-29T00:15:32;23.20;35.70
16827;DHT22;8530;49.540;8.576;2022-07-29T00:17:58;23.20;35.90
16827;DHT22;8530;49.540;8.576;2022-07-29T00:20:25;23.10;36.00
16827;DHT22;8530;49.540;8.576;2022-07-29T00:22:53;23.10;36.20
16827;DHT22;8530;49.540;8.576;2022-07-29T00:25:20;23.10;36.40
16827;DHT22;8530;49.540;8.576;2022-07-29T00:27:46;23.00;36.40
16827;DHT22;8530;49.540;8.576;2022-07-29T00:30:13;22.90;36.50
16827;DHT22;8530;49.540;8.576;2022-07-29T00:32:40;22.90;36.70
16827;DHT22;8530;49.540;8.576;2022-07-29T00:35:08;22.80;36.90
16827;DHT22;8530;49.540;8.576;2022-07-29T00:37:53;22.70;37.10
16827;DHT22;8530;49.540;8.576;2022-07-29T00:40:20;22.70;37.30
16827;DHT22;8530;49.540;8.576;2022-07-29T00:42:48;22.60;37.40
16827;DHT22;8530;49.540;8.576;2022-07-29T00:45:16;22.50;37.60
16827;DHT22;8530;49.540;8.576;2022-07-29T00:47:43;22.50;37.80
16827;DHT22;8530;49.540;8.576;2022-07-29T00:50:11;22.50;38.00
16827;DHT22;8530;49.540;8.576;2022-07-29T00:52:39;22.50;38.30
16827;DHT22;8530;49.540;8.576;2022-07-29T00:55:09;22.40;38.40
16827;DHT22;8530;49.540;8.576;2022-07-29T00:57:37;22.40;38.60
16827;DHT22;8530;49.540;8.576;2022-07-29T01:00:06;22.40;38.70
16827;DHT22;8530;49.540;8.576;2022-07-29T01:02:33;22.30;38.70
16827;DHT22;8530;49.540;8.576;2022-07-29T01:05:00;22.20;38.70
16827;DHT22;8530;49.540;8.576;2022-07-29T01:07:27;22.10;38.80
16827;DHT22;8530;49.540;8.576;2022-07-29T01:09:56;22.00;38.80
16827;DHT22;8530;49.540;8.576;2022-07-29T01:12:27;21.90;39.00
16827;DHT22;8530;49.540;8.576;2022-07-29T01:14:55;21.80;39.00
16827;DHT22;8530;49.540;8.576;2022-07-29T01:17:26;21.70;39.20
16827;DHT22;8530;49.540;8.576;2022-07-29T01:19:58;21.60;39.40
16827;DHT22;8530;49.540;8.576;2022-07-29T01:22:35;21.50;39.50
16827;DHT22;8530;49.540;8.576;2022-07-29T01:25:12;21.40;39.60
16827;DHT22;8530;49.540;8.576;2022-07-29T01:27:57;21.30;39.80
16827;DHT22;8530;49.540;8.576;2022-07-29T01:30:29;21.20;40.00
16827;DHT22;8530;49.540;8.576;2022-07-29T01:33:01;21.20;40.10
16827;DHT22;8530;49.540;8.576;2022-07-29T01:35:35;21.10;40.30
16827;DHT22;8530;49.540;8.576;2022-07-29T01:38:06;21.00;40.40
16827;DHT22;8530;49.540;8.576;2022-07-29T01:40:40;20.90;40.50
16827;DHT22;8530;49.540;8.576;2022-07-29T01:43:11;20.80;40.70
16827;DHT22;8530;49.540;8.576;2022-07-29T01:45:43;20.70;40.80
16827;DHT22;8530;49.540;8.576;2022-07-29T01:48:15;20.60;40.90
16827;DHT22;8530;49.540;8.576;2022-07-29T01:50:47;20.60;41.10
16827;DHT22;8530;49.540;8.576;2022-07-29T01:53:20;20.60;41.20
16827;DHT22;8530;49.540;8.576;2022-07-29T01:55:48;20.50;41.30
16827;DHT22;8530;49.540;8.576;2022-07-29T01:58:17;20.40;41.40
16827;DHT22;8530;49.540;8.576;2022-07-29T02:00:46;20.40;41.50
16827;DHT22;8530;49.540;8.576;2022-07-29T02:03:17;20.40;41.70
16827;DHT22;8530;49.540;8.576;2022-07-29T02:05:46;20.30;41.80
16827;DHT22;8530;49.540;8.576;2022-07-29T02:08:15;20.30;41.90
16827;DHT22;8530;49.540;8.576;2022-07-29T02:10:43;20.30;42.00
16827;DHT22;8530;49.540;8.576;2022-07-29T02:13:11;20.30;42.10
16827;DHT22;8530;49.540;8.576;2022-07-29T02:15:40;20.20;42.20
16827;DHT22;8530;49.540;8.576;2022-07-29T02:18:13;20.20;42.30
16827;DHT22;8530;49.540;8.576;2022-07-29T02:20:42;20.20;42.40
16827;DHT22;8530;49.540;8.576;2022-07-29T02:23:11;20.20;42.50
16827;DHT22;8530;49.540;8.576;2022-07-29T02:25:38;20.20;42.70
16827;DHT22;8530;49.540;8.576;2022-07-29T02:28:07;20.20;42.80
16827;DHT22;8530;49.540;8.576;2022-07-29T02:30:38;20.20;42.90
16827;DHT22;8530;49.540;8.576;2022-07-29T02:33:05;20.20;42.90
16827;DHT22;8530;49.540;8.576;2022-07-29T02:35:34;20.10;43.00
16827;DHT22;8530;49.540;8.576;2022-07-29T02:38:02;20.10;43.10
16827;DHT22;8530;49.540;8.576;2022-07-29T02:40:48;20.00;43.10
16827;DHT22;8530;49.540;8.576;2022-07-29T02:43:17;20.00;43.20
16827;DHT22;8530;49.540;8.576;2022-07-29T02:45:47;20.00;43.40
16827;DHT22;8530;49.540;8.576;2022-07-29T02:48:16;20.00;43.50
16827;DHT22;8530;49.540;8.576;2022-07-29T02:50:51;20.00;43.60
16827;DHT22;8530;49.540;8.576;2022-07-29T02:53:23;20.00;43.80
16827;DHT22;8530;49.540;8.576;2022-07-29T02:55:55;20.00;43.80
16827;DHT22;8530;49.540;8.576;2022-07-29T02:58:25;20.00;43.90
16827;DHT22;8530;49.540;8.576;2022-07-29T03:00:55;20.00;44.00
16827;DHT22;8530;49.540;8.576;2022-07-29T03:03:25;20.00;44.10
16827;DHT22;8530;49.540;8.576;2022-07-29T03:05:57;20.00;44.30
16827;DHT22;8530;49.540;8.576;2022-07-29T03:08:24;20.10;44.40
16827;DHT22;8530;49.540;8.576;2022-07-29T03:10:53;20.10;44.50
16827;DHT22;8530;49.540;8.576;2022-07-29T03:13:21;20.00;44.50
16827;DHT22;8530;49.540;8.576;2022-07-29T03:15:48;20.10;44.60
16827;DHT22;8530;49.540;8.576;2022-07-29T03:18:15;20.10;44.70
16827;DHT22;8530;49.540;8.576;2022-07-29T03:20:43;20.10;44.80
16827;DHT22;8530;49.540;8.576;2022-07-29T03:23:11;20.10;44.80
16827;DHT22;8530;49.540;8.576;2022-07-29T03:25:38;20.10;44.90
16827;DHT22;8530;49.540;8.576;2022-07-29T03:28:04;20.10;44.90
16827;DHT22;8530;49.540;8.576;2022-07-29T03:30:31;20.10;45.00
16827;DHT22;8530;49.540;8.576;2022-07-29T03:32:58;20.10;45.10
16827;DHT22;8530;49.540;8.576;2022-07-29T03:35:25;20.20;45.20
16827;DHT22;8530;49.540;8.576;2022-07-29T03:37:51;20.20;45.30
16827;DHT22;8530;49.540;8.576;2022-07-29T03:40:22;20.30;45.30
16827;DHT22;8530;49.540;8.576;2022-07-29T03:42:51;20.30;45.30
16827;DHT22;8530;49.540;8.576;2022-07-29T03:45:20;20.30;45.30
16827;DHT22;8530;49.540;8.576;2022-07-29T03:47:50;20.40;45.40
16827;DHT22;8530;49.540;8.576;2022-07-29T03:50:20;20.40;45.40
16827;DHT22;8530;49.540;8.576;2022-07-29T03:52:47;20.40;45.30
16827;DHT22;8530;49.540;8.576;2022-07-29T03:55:15;20.40;45.30
16827;DHT22;8530;49.540;8.576;2022-07-29T03:57:44;20.40;45.30
16827;DHT22;8530;49.540;8.576;2022-07-29T04:00:12;20.40;45.30
16827;DHT22;8530;49.540;8.576;2022-07-29T04:02:39;20.50;45.40
16827;DHT22;8530;49.540;8.576;2022-07-29T04:05:12;20.50;45.50
16827;DHT22;8530;49.540;8.576;2022-07-29T04:07:39;20.50;45.40
16827;DHT22;8530;49.540;8.576;2022-07-29T04:10:07;20.50;45.30
16827;DHT22;8530;49.540;8.576;2022-07-29T04:12:34;20.50;45.30
16827;DHT22;8530;49.540;8.576;2022-07-29T04:15:02;20.50;45.30
16827;DHT22;8530;49.540;8.576;2022-07-29T04:17:29;20.50;45.20
16827;DHT22;8530;49.540;8.576;2022-07-29T04:19:55;20.60;45.30
16827;DHT22;8530;49.540;8.576;2022-07-29T04:22:22;20.60;45.30
16827;DHT22;8530;49.540;8.576;2022-07-29T04:24:49;20.60;45.30
16827;DHT22;8530;49.540;8.576;2022-07-29T04:27:15;20.70;45.30
16827;DHT22;8530;49.540;8.576;2022-07-29T04:29:42;20.70;45.30
16827;DHT22;8530;49.540;8.576;2022-07-29T04:32:10;20.70;45.80
16827;DHT22;8530;49.540;8.576;2022-07-29T04:34:37;20.80;45.20
16827;DHT22;8530;49.540;8.576;2022-07-29T04:37:03;20.90;45.10
16827;DHT22;8530;49.540;8.576;2022-07-29T04:39:30;21.00;45.10
16827;DHT22;8530;49.540;8.576;2022-07-29T04:41:57;21.00;44.90
16827;DHT22;8530;49.540;8.576;2022-07-29T04:44:23;21.10;44.90
16827;DHT22;8530;49.540;8.576;2022-07-29T04:46:50;21.20;44.80
16827;DHT22;8530;49.540;8.576;2022-07-29T04:49:18;21.30;44.70
16827;DHT22;8530;49.540;8.576;2022-07-29T04:51:45;21.40;44.60
16827;DHT22;8530;49.540;8.576;2022-07-29T04:54:12;21.50;44.50
16827;DHT22;8530;49.540;8.576;2022-07-29T04:56:38;21.50;44.30
16827;DHT22;8530;49.540;8.576;2022-07-29T04:59:05;21.60;44.20
16827;DHT22;8530;49.540;8.576;2022-07-29T05:01:32;21.70;44.10
16827;DHT22;8530;49.540;8.576;2022-07-29T05:03:58;21.80;44.00
16827;DHT22;8530;49.540;8.576;2022-07-29T05:06:26;21.90;43.90
16827;DHT22;8530;49.540;8.576;2022-07-29T05:08:53;22.00;43.80
16827;DHT22;8530;49.540;8.576;2022-07-29T05:11:20;22.10;43.70
16827;DHT22;8530;49.540;8.576;2022-07-29T05:13:46;22.20;43.60
16827;DHT22;8530;49.540;8.576;2022-07-29T05:16:13;22.30;43.50
16827;DHT22;8530;49.540;8.576;2022-07-29T05:18:40;22.50;43.40
16827;DHT22;8530;49.540;8.576;2022-07-29T05:21:07;22.60;43.40
16827;DHT22;8530;49.540;8.576;2022-07-29T05:23:35;22.70;43.20
16827;DHT22;8530;49.540;8.576;2022-07-29T05:26:02;22.80;43.10
16827;DHT22;8530;49.540;8.576;2022-07-29T05:28:28;23.00;43.10
16827;DHT22;8530;49.540;8.576;2022-07-29T05:30:55;23.10;43.00
16827;DHT22;8530;49.540;8.576;2022-07-29T05:33:22;23.20;43.00
16827;DHT22;8530;49.540;8.576;2022-07-29T05:35:49;23.30;42.90
16827;DHT22;8530;49.540;8.576;2022-07-29T05:38:15;23.50;42.90
16827;DHT22;8530;49.540;8.576;2022-07-29T05:40:43;23.60;42.80
16827;DHT22;8530;49.540;8.576;2022-07-29T05:43:10;23.70;42.80
16827;DHT22;8530;49.540;8.576;2022-07-29T05:45:38;23.80;42.80
16827;DHT22;8530;49.540;8.576;2022-07-29T05:48:05;23.90;42.90
16827;DHT22;8530;49.540;8.576;2022-07-29T05:50:32;24.00;43.00
16827;DHT22;8530;49.540;8.576;2022-07-29T05:52:58;24.20;43.10
16827;DHT22;8530;49.540;8.576;2022-07-29T05:55:25;24.40;43.20
16827;DHT22;8530;49.540;8.576;2022-07-29T05:57:53;24.60;43.20
16827;DHT22;8530;49.540;8.576;2022-07-29T06:00:20;25.10;43.50
16827;DHT22;8530;49.540;8.576;2022-07-29T06:02:47;26.80;43.70
16827;DHT22;8530;49.540;8.576;2022-07-29T06:05:13;29.40;42.60
16827;DHT22;8530;49.540;8.576;2022-07-29T06:07:40;31.80;39.60
16827;DHT22;8530;49.540;8.576;2022-07-29T06:10:07;33.20;37.50
16827;DHT22;8530;49.540;8.576;2022-07-29T06:12:34;34.50;35.40
16827;DHT22;8530;49.540;8.576;2022-07-29T06:15:03;35.90;33.50
16827;DHT22;8530;49.540;8.576;2022-07-29T06:17:30;37.80;31.10
16827;DHT22;8530;49.540;8.576;2022-07-29T06:19:57;39.80;29.00
16827;DHT22;8530;49.540;8.576;2022-07-29T06:22:23;40.80;27.10
16827;DHT22;8530;49.540;8.576;2022-07-29T06:24:50;41.80;25.20
16827;DHT22;8530;49.540;8.576;2022-07-29T06:27:17;42.50;23.60
16827;DHT22;8530;49.540;8.576;2022-07-29T06:29:44;43.30;22.50
16827;DHT22;8530;49.540;8.576;2022-07-29T06:32:13;44.00;21.40
16827;DHT22;8530;49.540;8.576;2022-07-29T06:34:39;44.80;20.50
16827;DHT22;8530;49.540;8.576;2022-07-29T06:37:06;44.20;20.00
16827;DHT22;8530;49.540;8.576;2022-07-29T06:39:34;43.80;19.80
16827;DHT22;8530;49.540;8.576;2022-07-29T06:42:01;44.50;19.60
16827;DHT22;8530;49.540;8.576;2022-07-29T06:44:28;45.50;18.80
16827;DHT22;8530;49.540;8.576;2022-07-29T06:46:55;46.60;18.10
16827;DHT22;8530;49.540;8.576;2022-07-29T06:49:23;47.20;17.50
16827;DHT22;8530;49.540;8.576;2022-07-29T06:51:51;47.60;17.10
16827;DHT22;8530;49.540;8.576;2022-07-29T06:54:18;47.70;16.80
16827;DHT22;8530;49.540;8.576;2022-07-29T06:56:45;46.70;16.50
16827;DHT22;8530;49.540;8.576;2022-07-29T06:59:12;45.50;16.80
16827;DHT22;8530;49.540;8.576;2022-07-29T07:01:40;44.90;17.10
16827;DHT22;8530;49.540;8.576;2022-07-29T07:04:08;44.30;17.50
16827;DHT22;8530;49.540;8.576;2022-07-29T07:06:36;43.60;17.60
16827;DHT22;8530;49.540;8.576;2022-07-29T07:09:03;42.70;17.80
16827;DHT22;8530;49.540;8.576;2022-07-29T07:11:30;41.80;18.10
16827;DHT22;8530;49.540;8.576;2022-07-29T07:13:57;41.30;18.80
16827;DHT22;8530;49.540;8.576;2022-07-29T07:16:23;42.10;19.10
16827;DHT22;8530;49.540;8.576;2022-07-29T07:18:50;42.80;19.00
16827;DHT22;8530;49.540;8.576;2022-07-29T07:21:17;43.10;18.70
16827;DHT22;8530;49.540;8.576;2022-07-29T07:23:45;43.00;18.60
16827;DHT22;8530;49.540;8.576;2022-07-29T07:26:11;43.40;18.70
16827;DHT22;8530;49.540;8.576;2022-07-29T07:28:38;43.90;18.50
16827;DHT22;8530;49.540;8.576;2022-07-29T07:31:05;43.50;18.20
16827;DHT22;8530;49.540;8.576;2022-07-29T07:33:32;42.70;18.20
16827;DHT22;8530;49.540;8.576;2022-07-29T07:35:58;42.00;18.60
16827;DHT22;8530;49.540;8.576;2022-07-29T07:38:25;42.00;18.90
16827;DHT22;8530;49.540;8.576;2022-07-29T07:40:53;42.90;19.10
16827;DHT22;8530;49.540;8.576;2022-07-29T07:43:20;44.40;18.80
16827;DHT22;8530;49.540;8.576;2022-07-29T07:45:47;45.60;18.10
16827;DHT22;8530;49.540;8.576;2022-07-29T07:48:14;46.20;17.40
16827;DHT22;8530;49.540;8.576;2022-07-29T07:50:40;46.30;16.90
16827;DHT22;8530;49.540;8.576;2022-07-29T07:53:07;45.60;16.50
16827;DHT22;8530;49.540;8.576;2022-07-29T07:55:39;44.00;16.40
16827;DHT22;8530;49.540;8.576;2022-07-29T07:58:07;42.20;16.80
16827;DHT22;8530;49.540;8.576;2022-07-29T08:00:34;40.60;17.30
16827;DHT22;8530;49.540;8.576;2022-07-29T08:03:01;39.00;18.00
16827;DHT22;8530;49.540;8.576;2022-07-29T08:05:28;37.80;19.00
16827;DHT22;8530;49.540;8.576;2022-07-29T08:07:54;37.30;20.00
16827;DHT22;8530;49.540;8.576;2022-07-29T08:10:21;36.90;20.50
16827;DHT22;8530;49.540;8.576;2022-07-29T08:13:02;36.30;21.00
16827;DHT22;8530;49.540;8.576;2022-07-29T08:15:30;35.60;21.70
16827;DHT22;8530;49.540;8.576;2022-07-29T08:17:57;35.50;22.40
16827;DHT22;8530;49.540;8.576;2022-07-29T08:20:24;35.10;22.60
16827;DHT22;8530;49.540;8.576;2022-07-29T08:22:51;34.50;23.00
16827;DHT22;8530;49.540;8.576;2022-07-29T08:25:19;34.00;23.60
16827;DHT22;8530;49.540;8.576;2022-07-29T08:27:46;33.70;24.30
16827;DHT22;8530;49.540;8.576;2022-07-29T08:30:12;33.30;24.70
16827;DHT22;8530;49.540;8.576;2022-07-29T08:32:41;33.20;25.20
16827;DHT22;8530;49.540;8.576;2022-07-29T08:35:08;33.10;25.60
16827;DHT22;8530;49.540;8.576;2022-07-29T08:37:35;33.00;25.80
16827;DHT22;8530;49.540;8.576;2022-07-29T08:40:02;33.40;26.10
16827;DHT22;8530;49.540;8.576;2022-07-29T08:42:30;33.60;26.20
16827;DHT22;8530;49.540;8.576;2022-07-29T08:44:57;33.80;26.20
16827;DHT22;8530;49.540;8.576;2022-07-29T08:47:25;33.80;26.40
16827;DHT22;8530;49.540;8.576;2022-07-29T08:49:54;33.80;26.90
16827;DHT22;8530;49.540;8.576;2022-07-29T08:52:21;33.70;26.60
16827;DHT22;8530;49.540;8.576;2022-07-29T08:54:49;33.70;26.70
16827;DHT22;8530;49.540;8.576;2022-07-29T08:57:17;33.50;26.80
16827;DHT22;8530;49.540;8.576;2022-07-29T08:59:46;33.60;27.00
16827;DHT22;8530;49.540;8.576;2022-07-29T09:02:19;33.80;27.00
16827;DHT22;8530;49.540;8.576;2022-07-29T09:04:46;34.00;27.00
16827;DHT22;8530;49.540;8.576;2022-07-29T09:07:15;34.10;26.80
16827;DHT22;8530;49.540;8.576;2022-07-29T09:09:43;34.40;26.70
16827;DHT22;8530;49.540;8.576;2022-07-29T09:12:10;34.50;26.60
16827;DHT22;8530;49.540;8.576;2022-07-29T09:14:37;34.50;26.50
16827;DHT22;8530;49.540;8.576;2022-07-29T09:17:04;34.30;26.40
16827;DHT22;8530;49.540;8.576;2022-07-29T09:19:32;34.00;26.60
16827;DHT22;8530;49.540;8.576;2022-07-29T09:22:01;33.80;26.90
16827;DHT22;8530;49.540;8.576;2022-07-29T09:24:41;33.80;27.10
16827;DHT22;8530;49.540;8.576;2022-07-29T09:27:19;33.70;27.20
16827;DHT22;8530;49.540;8.576;2022-07-29T09:29:47;33.70;27.20
16827;DHT22;8530;49.540;8.576;2022-07-29T09:32:21;33.80;27.30
16827;DHT22;8530;49.540;8.576;2022-07-29T09:34:48;33.90;27.30
16827;DHT22;8530;49.540;8.576;2022-07-29T09:37:25;34.00;27.30
16827;DHT22;8530;49.540;8.576;2022-07-29T09:39:54;33.80;27.40
16827;DHT22;8530;49.540;8.576;2022-07-29T09:42:28;33.60;27.70
16827;DHT22;8530;49.540;8.576;2022-07-29T09:44:57;33.70;27.70
16827;DHT22;8530;49.540;8.576;2022-07-29T09:47:40;33.80;27.60
16827;DHT22;8530;49.540;8.576;2022-07-29T09:50:07;34.00;27.60
16827;DHT22;8530;49.540;8.576;2022-07-29T09:52:45;34.00;27.50
16827;DHT22;8530;49.540;8.576;2022-07-29T09:55:13;34.10;27.40
16827;DHT22;8530;49.540;8.576;2022-07-29T09:57:40;34.10;27.40
16827;DHT22;8530;49.540;8.576;2022-07-29T10:00:09;34.00;27.30
16827;DHT22;8530;49.540;8.576;2022-07-29T10:02:37;34.00;27.40
16827;DHT22;8530;49.540;8.576;2022-07-29T10:05:06;34.10;27.40
16827;DHT22;8530;49.540;8.576;2022-07-29T10:07:48;34.10;27.40
16827;DHT22;8530;49.540;8.576;2022-07-29T10:10:21;34.20;27.50
16827;DHT22;8530;49.540;8.576;2022-07-29T10:12:49;34.20;27.40
16827;DHT22;8530;49.540;8.576;2022-07-29T10:15:17;34.10;27.30
16827;DHT22;8530;49.540;8.576;2022-07-29T10:17:44;34.00;27.40
16827;DHT22;8530;49.540;8.576;2022-07-29T10:20:11;33.80;27.50
16827;DHT22;8530;49.540;8.576;2022-07-29T10:22:38;33.50;27.70
16827;DHT22;8530;49.540;8.576;2022-07-29T10:25:06;33.20;27.90
16827;DHT22;8530;49.540;8.576;2022-07-29T10:27:35;33.10;28.10
16827;DHT22;8530;49.540;8.576;2022-07-29T10:30:02;33.10;28.20
16827;DHT22;8530;49.540;8.576;2022-07-29T10:32:37;33.20;28.30
16827;DHT22;8530;49.540;8.576;2022-07-29T10:35:15;33.30;28.40
16827;DHT22;8530;49.540;8.576;2022-07-29T10:38:10;33.40;28.40
16827;DHT22;8530;49.540;8.576;2022-07-29T10:40:48;33.40;28.40
16827;DHT22;8530;49.540;8.576;2022-07-29T10:43:38;33.40;28.80
16827;DHT22;8530;49.540;8.576;2022-07-29T10:46:07;33.40;28.30
16827;DHT22;8530;49.540;8.576;2022-07-29T10:48:34;33.40;28.40
16827;DHT22;8530;49.540;8.576;2022-07-29T10:51:03;33.50;28.40
16827;DHT22;8530;49.540;8.576;2022-07-29T10:53:46;33.70;28.80
16827;DHT22;8530;49.540;8.576;2022-07-29T10:56:24;33.80;28.20
16827;DHT22;8530;49.540;8.576;2022-07-29T10:59:25;33.80;28.20
16827;DHT22;8530;49.540;8.576;2022-07-29T11:01:54;33.80;28.10
16827;DHT22;8530;49.540;8.576;2022-07-29T11:07:20;34.10;27.90
16827;DHT22;8530;49.540;8.576;2022-07-29T11:10:21;34.30;27.80
16827;DHT22;8530;49.540;8.576;2022-07-29T11:12:49;34.50;27.60
16827;DHT22;8530;49.540;8.576;2022-07-29T11:15:19;34.80;27.40
16827;DHT22;8530;49.540;8.576;2022-07-29T11:18:08;35.00;27.20
16827;DHT22;8530;49.540;8.576;2022-07-29T11:20:40;35.10;26.90
16827;DHT22;8530;49.540;8.576;2022-07-29T11:23:21;35.00;26.80
16827;DHT22;8530;49.540;8.576;2022-07-29T11:26:15;34.70;26.70
16827;DHT22;8530;49.540;8.576;2022-07-29T11:28:51;34.60;26.60
16827;DHT22;8530;49.540;8.576;2022-07-29T11:31:33;34.30;26.70
16827;DHT22;8530;49.540;8.576;2022-07-29T11:34:21;34.00;26.80
16827;DHT22;8530;49.540;8.576;2022-07-29T11:37:17;33.70;27.00
16827;DHT22;8530;49.540;8.576;2022-07-29T11:39:45;33.40;27.20
16827;DHT22;8530;49.540;8.576;2022-07-29T11:42:41;33.30;27.50
16827;DHT22;8530;49.540;8.576;2022-07-29T11:45:11;33.20;27.60
16827;DHT22;8530;49.540;8.576;2022-07-29T11:47:46;33.50;27.50
16827;DHT22;8530;49.540;8.576;2022-07-29T11:50:18;34.00;27.40
16827;DHT22;8530;49.540;8.576;2022-07-29T11:52:52;34.50;27.00
16827;DHT22;8530;49.540;8.576;2022-07-29T11:55:21;35.00;26.80
16827;DHT22;8530;49.540;8.576;2022-07-29T11:57:51;35.20;26.50
16827;DHT22;8530;49.540;8.576;2022-07-29T12:00:27;35.20;26.30
16827;DHT22;8530;49.540;8.576;2022-07-29T12:02:57;35.00;26.10
16827;DHT22;8530;49.540;8.576;2022-07-29T12:05:32;34.80;26.10
16827;DHT22;8530;49.540;8.576;2022-07-29T12:08:05;34.50;26.10
16827;DHT22;8530;49.540;8.576;2022-07-29T12:10:32;34.30;26.30
16827;DHT22;8530;49.540;8.576;2022-07-29T12:12:59;33.80;26.40
16827;DHT22;8530;49.540;8.576;2022-07-29T12:15:26;33.70;26.70
16827;DHT22;8530;49.540;8.576;2022-07-29T12:17:53;33.70;26.80
16827;DHT22;8530;49.540;8.576;2022-07-29T12:20:26;33.80;26.90
16827;DHT22;8530;49.540;8.576;2022-07-29T12:22:53;33.80;26.90
16827;DHT22;8530;49.540;8.576;2022-07-29T12:25:22;33.90;27.00
16827;DHT22;8530;49.540;8.576;2022-07-29T12:27:58;34.00;26.90
16827;DHT22;8530;49.540;8.576;2022-07-29T12:30:38;34.00;26.80
16827;DHT22;8530;49.540;8.576;2022-07-29T12:33:12;34.00;26.70
16827;DHT22;8530;49.540;8.576;2022-07-29T12:35:42;34.10;26.60
16827;DHT22;8530;49.540;8.576;2022-07-29T12:38:10;34.00;26.60
16827;DHT22;8530;49.540;8.576;2022-07-29T12:40:37;34.00;26.60
16827;DHT22;8530;49.540;8.576;2022-07-29T12:43:08;33.90;26.70
16827;DHT22;8530;49.540;8.576;2022-07-29T12:45:36;33.80;26.70
16827;DHT22;8530;49.540;8.576;2022-07-29T12:48:03;33.70;26.70
16827;DHT22;8530;49.540;8.576;2022-07-29T12:50:30;33.80;26.70
16827;DHT22;8530;49.540;8.576;2022-07-29T12:53:10;33.70;26.60
16827;DHT22;8530;49.540;8.576;2022-07-29T12:55:45;33.70;26.50
16827;DHT22;8530;49.540;8.576;2022-07-29T12:58:25;33.80;26.50
16827;DHT22;8530;49.540;8.576;2022-07-29T13:01:05;34.00;26.30
16827;DHT22;8530;49.540;8.576;2022-07-29T13:03:46;34.30;26.00
16827;DHT22;8530;49.540;8.576;2022-07-29T13:06:30;34.70;25.70
16827;DHT22;8530;49.540;8.576;2022-07-29T13:09:01;35.00;25.40
16827;DHT22;8530;49.540;8.576;2022-07-29T13:11:29;35.10;25.20
16827;DHT22;8530;49.540;8.576;2022-07-29T13:13:56;35.20;25.10
16827;DHT22;8530;49.540;8.576;2022-07-29T13:16:22;35.10;24.90
16827;DHT22;8530;49.540;8.576;2022-07-29T13:19:07;35.10;24.80
16827;DHT22;8530;49.540;8.576;2022-07-29T13:21:35;35.10;24.70
16827;DHT22;8530;49.540;8.576;2022-07-29T13:24:03;35.00;24.60
16827;DHT22;8530;49.540;8.576;2022-07-29T13:26:31;34.80;24.60
16827;DHT22;8530;49.540;8.576;2022-07-29T13:28:59;34.70;24.70
16827;DHT22;8530;49.540;8.576;2022-07-29T13:31:26;34.50;24.70
16827;DHT22;8530;49.540;8.576;2022-07-29T13:33:52;34.50;24.70
16827;DHT22;8530;49.540;8.576;2022-07-29T13:36:19;34.60;24.70
16827;DHT22;8530;49.540;8.576;2022-07-29T13:38:46;34.70;24.60
16827;DHT22;8530;49.540;8.576;2022-07-29T13:41:14;34.70;24.40
16827;DHT22;8530;49.540;8.576;2022-07-29T13:43:40;34.60;24.30
16827;DHT22;8530;49.540;8.576;2022-07-29T13:46:07;34.70;24.10
16827;DHT22;8530;49.540;8.576;2022-07-29T13:48:34;34.60;24.00
16827;DHT22;8530;49.540;8.576;2022-07-29T13:51:01;34.50;23.90
16827;DHT22;8530;49.540;8.576;2022-07-29T13:53:27;34.50;23.90
16827;DHT22;8530;49.540;8.576;2022-07-29T13:55:54;34.50;23.90
16827;DHT22;8530;49.540;8.576;2022-07-29T13:58:22;34.50;23.90
16827;DHT22;8530;49.540;8.576;2022-07-29T14:00:49;34.60;23.90
16827;DHT22;8530;49.540;8.576;2022-07-29T14:03:16;34.60;23.80
16827;DHT22;8530;49.540;8.576;2022-07-29T14:05:43;34.60;23.80
16827;DHT22;8530;49.540;8.576;2022-07-29T14:08:10;34.60;23.70
16827;DHT22;8530;49.540;8.576;2022-07-29T14:10:37;34.60;23.70
16827;DHT22;8530;49.540;8.576;2022-07-29T14:13:03;34.60;23.70
16827;DHT22;8530;49.540;8.576;2022-07-29T14:15:32;34.70;23.60
16827;DHT22;8530;49.540;8.576;2022-07-29T14:17:58;34.80;23.50
16827;DHT22;8530;49.540;8.576;2022-07-29T14:20:25;34.90;23.50
16827;DHT22;8530;49.540;8.576;2022-07-29T14:22:53;35.00;23.50
16827;DHT22;8530;49.540;8.576;2022-07-29T14:25:20;35.10;23.30
16827;DHT22;8530;49.540;8.576;2022-07-29T14:27:47;35.10;23.30
16827;DHT22;8530;49.540;8.576;2022-07-29T14:30:14;35.20;23.20
16827;DHT22;8530;49.540;8.576;2022-07-29T14:32:42;35.30;23.10
16827;DHT22;8530;49.540;8.576;2022-07-29T14:35:09;35.30;23.10
16827;DHT22;8530;49.540;8.576;2022-07-29T14:37:35;35.30;22.90
16827;DHT22;8530;49.540;8.576;2022-07-29T14:40:03;35.40;23.00
16827;DHT22;8530;49.540;8.576;2022-07-29T14:42:30;35.40;23.00
16827;DHT22;8530;49.540;8.576;2022-07-29T14:44:57;35.50;22.90
16827;DHT22;8530;49.540;8.576;2022-07-29T14:47:24;35.60;22.80
16827;DHT22;8530;49.540;8.576;2022-07-29T14:49:52;35.60;22.70
16827;DHT22;8530;49.540;8.576;2022-07-29T14:52:19;35.70;22.60
16827;DHT22;8530;49.540;8.576;2022-07-29T14:54:45;35.80;22.50
16827;DHT22;8530;49.540;8.576;2022-07-29T14:57:12;36.00;22.50
16827;DHT22;8530;49.540;8.576;2022-07-29T14:59:39;36.10;22.40
16827;DHT22;8530;49.540;8.576;2022-07-29T15:02:06;36.10;22.20
16827;DHT22;8530;49.540;8.576;2022-07-29T15:04:32;36.00;22.10
16827;DHT22;8530;49.540;8.576;2022-07-29T15:07:01;35.70;22.00
16827;DHT22;8530;49.540;8.576;2022-07-29T15:09:28;35.60;22.10
16827;DHT22;8530;49.540;8.576;2022-07-29T15:11:54;35.40;22.10
16827;DHT22;8530;49.540;8.576;2022-07-29T15:14:21;35.20;22.10
16827;DHT22;8530;49.540;8.576;2022-07-29T15:16:48;35.00;22.20
16827;DHT22;8530;49.540;8.576;2022-07-29T15:19:15;35.00;22.20
16827;DHT22;8530;49.540;8.576;2022-07-29T15:21:41;34.90;22.30
16827;DHT22;8530;49.540;8.576;2022-07-29T15:24:09;34.70;22.30
16827;DHT22;8530;49.540;8.576;2022-07-29T15:26:36;34.60;22.40
16827;DHT22;8530;49.540;8.576;2022-07-29T15:29:03;34.40;22.40
16827;DHT22;8530;49.540;8.576;2022-07-29T15:31:29;34.20;22.50
16827;DHT22;8530;49.540;8.576;2022-07-29T15:33:56;34.00;22.60
16827;DHT22;8530;49.540;8.576;2022-07-29T15:36:23;33.90;22.70
16827;DHT22;8530;49.540;8.576;2022-07-29T15:38:53;33.70;22.80
16827;DHT22;8530;49.540;8.576;2022-07-29T15:41:21;33.70;23.00
16827;DHT22;8530;49.540;8.576;2022-07-29T15:43:48;33.70;23.00
16827;DHT22;8530;49.540;8.576;2022-07-29T15:46:18;33.70;23.10
16827;DHT22;8530;49.540;8.576;2022-07-29T15:49:06;33.70;23.30
16827;DHT22;8530;49.540;8.576;2022-07-29T15:51:33;33.50;23.40
16827;DHT22;8530;49.540;8.576;2022-07-29T15:54:00;33.30;23.50
16827;DHT22;8530;49.540;8.576;2022-07-29T15:56:29;33.00;23.70
16827;DHT22;8530;49.540;8.576;2022-07-29T15:58:56;32.70;23.90
16827;DHT22;8530;49.540;8.576;2022-07-29T16:01:23;32.60;24.10